sensor_id;sensor_type;location;lat;lon;timestamp;pressure;altitude;pressure_sealevel;temperature;humidity
13604;BME280;24578;48.264;11.436;2022-08-21T00:00:59;96230.53;;;15.13;100.00
13604;BME280;24578;48.264;11.436;2022-08-21T00:04:07;96230.00;;;15.10;100.00
13604;BME280;24578;48.264;11.436;2022-08-21T00:07:08;96231.25;;;15.05;100.00
13604;BME280;24578;48.264;11.436;2022-08-21T00:10:08;96234.81;;;15.04;100.00
13604;BME280;24578;48.264;11.436;2022-08-21T00:13:08;96234.13;;;15.02;100.00
13604;BME280;24578;48.264;11.436;2022-08-21T00:16:09;96241.50;;;14.97;100.00
13604;BME280;24578;48.264;11.436;2022-08-21T00:19:09;96239.34;;;14.92;100.00
13604;BME280;24578;48.264;11.436;2022-08-21T00:22:09;96238.63;;;14.90;100.00
13604;BME280;24578;48.264;11.436;2022-08-21T00:25:10;96233.69;;;14.87;100.00
13604;BME280;24578;48.264;11.436;2022-08-21T00:28:12;96235.22;;;14.80;100.00
13604;BME280;24578;48.264;11.436;2022-08-21T00:31:12;96239.06;;;14.76;100.00
13604;BME280;24578;48.264;11.436;2022-08-21T00:34:13;96230.16;;;14.79;100.00
13604;BME280;24578;48.264;11.436;2022-08-21T00:37:13;96227.69;;;14.77;100.00
13604;BME280;24578;48.264;11.436;2022-08-21T00:40:15;96230.84;;;14.71;100.00
13604;BME280;24578;48.264;11.436;2022-08-21T00:43:17;96229.19;;;14.70;100.00
13604;BME280;24578;48.264;11.436;2022-08-21T00:46:18;96226.16;;;14.65;100.00
13604;BME280;24578;48.264;11.436;2022-08-21T00:49:18;96221.34;;;14.60;100.00
13604;BME280;24578;48.264;11.436;2022-08-21T00:52:20;96230.25;;;14.57;100.00
13604;BME280;24578;48.264;11.436;2022-08-21T00:55:22;96226.28;;;14.53;100.00
13604;BME280;24578;48.264;11.436;2022-08-21T00:58:23;96223.25;;;14.48;100.00
13604;BME280;24578;48.264;11.436;2022-08-21T01:01:23;96220.78;;;14.46;100.00
13604;BME280;24578;48.264;11.436;2022-08-21T01:04:24;96213.94;;;14.45;100.00
13604;BME280;24578;48.264;11.436;2022-08-21T01:07:24;96215.16;;;14.41;100.00
13604;BME280;24578;48.264;11.436;2022-08-21T01:10:25;96209.13;;;14.41;100.00
13604;BME280;24578;48.264;11.436;2022-08-21T01:13:25;96209.53;;;14.36;100.00
13604;BME280;24578;48.264;11.436;2022-08-21T01:16:26;96202.97;;;14.32;100.00
13604;BME280;24578;48.264;11.436;2022-08-21T01:19:27;96213.63;;;14.29;100.00
13604;BME280;24578;48.264;11.436;2022-08-21T01:22:27;96209.50;;;14.26;100.00
13604;BME280;24578;48.264;11.436;2022-08-21T01:25:27;96210.59;;;14.24;100.00
13604;BME280;24578;48.264;11.436;2022-08-21T01:28:28;96209.09;;;14.21;100.00
13604;BME280;24578;48.264;11.436;2022-08-21T01:31:30;96207.72;;;14.17;100.00
13604;BME280;24578;48.264;11.436;2022-08-21T01:34:33;96204.69;;;14.12;100.00
13604;BME280;24578;48.264;11.436;2022-08-21T01:37:34;96204.97;;;14.09;100.00
13604;BME280;24578;48.264;11.436;2022-08-21T01:40:34;96200.84;;;14.06;100.00
13604;BME280;24578;48.264;11.436;2022-08-21T01:43:35;96205.63;;;14.01;100.00
13604;BME280;24578;48.264;11.436;2022-08-21T01:46:35;96204.09;;;13.98;100.00
13604;BME280;24578;48.264;11.436;2022-08-21T01:49:36;96210.25;;;13.97;100.00
13604;BME280;24578;48.264;11.436;2022-08-21T01:52:36;96200.97;;;13.95;100.00
13604;BME280;24578;48.264;11.436;2022-08-21T01:55:36;96206.00;;;13.96;100.00
13604;BME280;24578;48.264;11.436;2022-08-21T01:58:36;96205.22;;;13.96;100.00
13604;BME280;24578;48.264;11.436;2022-08-21T02:01:37;96204.50;;;13.94;100.00
13604;BME280;24578;48.264;11.436;2022-08-21T02:04:39;96201.34;;;13.90;100.00
13604;BME280;24578;48.264;11.436;2022-08-21T02:07:41;96202.16;;;13.91;100.00
13604;BME280;24578;48.264;11.436;2022-08-21T02:10:42;96191.34;;;13.85;100.00
13604;BME280;24578;48.264;11.436;2022-08-21T02:13:43;96190.09;;;13.80;100.00
13604;BME280;24578;48.264;11.436;2022-08-21T02:16:43;96188.31;;;13.80;100.00
13604;BME280;24578;48.264;11.436;2022-08-21T02:19:44;96180.78;;;13.77;100.00
13604;BME280;24578;48.264;11.436;2022-08-21T02:22:44;96185.28;;;13.75;100.00
13604;BME280;24578;48.264;11.436;2022-08-21T02:25:44;96183.09;;;13.70;100.00
13604;BME280;24578;48.264;11.436;2022-08-21T02:28:45;96185.13;;;13.67;100.00
13604;BME280;24578;48.264;11.436;2022-08-21T02:31:45;96184.53;;;13.63;100.00
13604;BME280;24578;48.264;11.436;2022-08-21T02:34:46;96188.00;;;13.64;100.00
13604;BME280;24578;48.264;11.436;2022-08-21T02:37:49;96184.69;;;13.62;100.00
13604;BME280;24578;48.264;11.436;2022-08-21T02:40:50;96185.09;;;13.57;100.00
13604;BME280;24578;48.264;11.436;2022-08-21T02:43:50;96191.38;;;13.54;100.00
13604;BME280;24578;48.264;11.436;2022-08-21T02:46:50;96190.00;;;13.50;100.00
13604;BME280;24578;48.264;11.436;2022-08-21T02:49:51;96191.34;;;13.45;100.00
13604;BME280;24578;48.264;11.436;2022-08-21T02:52:51;96189.94;;;13.40;100.00
13604;BME280;24578;48.264;11.436;2022-08-21T02:55:52;96186.88;;;13.35;100.00
13604;BME280;24578;48.264;11.436;2022-08-21T02:58:53;96181.91;;;13.32;100.00
13604;BME280;24578;48.264;11.436;2022-08-21T03:01:54;96183.84;;;13.30;100.00
13604;BME280;24578;48.264;11.436;2022-08-21T03:04:55;96178.91;;;13.27;100.00
13604;BME280;24578;48.264;11.436;2022-08-21T03:07:55;96182.56;;;13.24;100.00
13604;BME280;24578;48.264;11.436;2022-08-21T03:10:55;96189.81;;;13.21;100.00
13604;BME280;24578;48.264;11.436;2022-08-21T03:13:55;96189.00;;;13.20;100.00
13604;BME280;24578;48.264;11.436;2022-08-21T03:16:56;96188.16;;;13.20;100.00
13604;BME280;24578;48.264;11.436;2022-08-21T03:19:56;96191.69;;;13.19;100.00
13604;BME280;24578;48.264;11.436;2022-08-21T03:22:56;96195.16;;;13.19;100.00
13604;BME280;24578;48.264;11.436;2022-08-21T03:25:57;96197.16;;;13.16;100.00
13604;BME280;24578;48.264;11.436;2022-08-21T03:28:57;96200.84;;;13.13;100.00
13604;BME280;24578;48.264;11.436;2022-08-21T03:31:57;96202.03;;;13.09;100.00
13604;BME280;24578;48.264;11.436;2022-08-21T03:34:57;96197.13;;;13.06;100.00
13604;BME280;24578;48.264;11.436;2022-08-21T03:37:58;96193.94;;;13.02;100.00
13604;BME280;24578;48.264;11.436;2022-08-21T03:40:58;96197.63;;;13.00;100.00
13604;BME280;24578;48.264;11.436;2022-08-21T03:43:59;96185.81;;;12.95;100.00
13604;BME280;24578;48.264;11.436;2022-08-21T03:46:59;96193.75;;;12.94;100.00
13604;BME280;24578;48.264;11.436;2022-08-21T03:49:59;96195.66;;;12.92;100.00
13604;BME280;24578;48.264;11.436;2022-08-21T03:53:00;96193.28;;;12.89;100.00
13604;BME280;24578;48.264;11.436;2022-08-21T03:56:00;96190.00;;;12.87;100.00
13604;BME280;24578;48.264;11.436;2022-08-21T03:59:01;96193.69;;;12.84;100.00
13604;BME280;24578;48.264;11.436;2022-08-21T04:02:04;96203.38;;;12.82;100.00
13604;BME280;24578;48.264;11.436;2022-08-21T04:05:04;96201.63;;;12.83;100.00
13604;BME280;24578;48.264;11.436;2022-08-21T04:08:05;96202.28;;;12.85;100.00
13604;BME280;24578;48.264;11.436;2022-08-21T04:11:05;96201.63;;;12.83;100.00
13604;BME280;24578;48.264;11.436;2022-08-21T04:14:05;96207.47;;;12.85;100.00
13604;BME280;24578;48.264;11.436;2022-08-21T04:17:06;96212.66;;;12.85;100.00
13604;BME280;24578;48.264;11.436;2022-08-21T04:20:07;96203.94;;;12.86;100.00
13604;BME280;24578;48.264;11.436;2022-08-21T04:23:07;96206.44;;;12.87;100.00
13604;BME280;24578;48.264;11.436;2022-08-21T04:26:07;96215.03;;;12.88;100.00
13604;BME280;24578;48.264;11.436;2022-08-21T04:29:07;96216.69;;;12.89;100.00
13604;BME280;24578;48.264;11.436;2022-08-21T04:32:08;96223.13;;;12.94;100.00
13604;BME280;24578;48.264;11.436;2022-08-21T04:35:09;96219.72;;;12.94;100.00
13604;BME280;24578;48.264;11.436;2022-08-21T04:38:09;96220.53;;;12.94;100.00
13604;BME280;24578;48.264;11.436;2022-08-21T04:41:10;96224.78;;;12.95;100.00
13604;BME280;24578;48.264;11.436;2022-08-21T04:44:10;96223.97;;;12.95;100.00
13604;BME280;24578;48.264;11.436;2022-08-21T04:47:10;96233.44;;;12.96;100.00
13604;BME280;24578;48.264;11.436;2022-08-21T04:50:10;96230.59;;;12.99;100.00
13604;BME280;24578;48.264;11.436;2022-08-21T04:53:15;96240.84;;;13.01;100.00
13604;BME280;24578;48.264;11.436;2022-08-21T04:56:19;96240.84;;;13.01;100.00
13604;BME280;24578;48.264;11.436;2022-08-21T04:59:23;96231.00;;;13.04;100.00
13604;BME280;24578;48.264;11.436;2022-08-21T05:02:24;96224.75;;;13.07;100.00
13604;BME280;24578;48.264;11.436;2022-08-21T05:05:24;96238.31;;;13.10;100.00
13604;BME280;24578;48.264;11.436;2022-08-21T05:08:25;96230.81;;;13.17;100.00
13604;BME280;24578;48.264;11.436;2022-08-21T05:11:27;96235.13;;;13.28;100.00
13604;BME280;24578;48.264;11.436;2022-08-21T05:14:27;96239.19;;;13.42;100.00
13604;BME280;24578;48.264;11.436;2022-08-21T05:17:28;96239.31;;;13.62;100.00
13604;BME280;24578;48.264;11.436;2022-08-21T05:20:29;96234.88;;;13.83;100.00
13604;BME280;24578;48.264;11.436;2022-08-21T05:23:29;96234.28;;;14.21;100.00
13604;BME280;24578;48.264;11.436;2022-08-21T05:26:29;96237.13;;;15.17;100.00
13604;BME280;24578;48.264;11.436;2022-08-21T05:29:29;96233.50;;;16.41;100.00
13604;BME280;24578;48.264;11.436;2022-08-21T05:32:30;96231.31;;;17.54;100.00
13604;BME280;24578;48.264;11.436;2022-08-21T05:35:30;96228.28;;;18.52;100.00
13604;BME280;24578;48.264;11.436;2022-08-21T05:38:30;96231.47;;;19.39;100.00
13604;BME280;24578;48.264;11.436;2022-08-21T05:41:30;96238.69;;;20.01;100.00
13604;BME280;24578;48.264;11.436;2022-08-21T05:44:31;96242.50;;;20.62;99.41
13604;BME280;24578;48.264;11.436;2022-08-21T05:47:31;96246.06;;;21.01;98.92
13604;BME280;24578;48.264;11.436;2022-08-21T05:50:31;96238.53;;;21.51;91.48
13604;BME280;24578;48.264;11.436;2022-08-21T05:53:31;96231.06;;;22.08;88.95
13604;BME280;24578;48.264;11.436;2022-08-21T05:56:32;96235.97;;;22.84;91.44
13604;BME280;24578;48.264;11.436;2022-08-21T05:59:32;96232.84;;;23.46;83.90
13604;BME280;24578;48.264;11.436;2022-08-21T06:02:32;96231.91;;;23.60;75.38
13604;BME280;24578;48.264;11.436;2022-08-21T06:05:32;96234.28;;;23.83;78.34
13604;BME280;24578;48.264;11.436;2022-08-21T06:08:33;96237.94;;;24.17;73.25
13604;BME280;24578;48.264;11.436;2022-08-21T06:11:34;96232.56;;;24.46;67.71
13604;BME280;24578;48.264;11.436;2022-08-21T06:14:35;96233.09;;;24.90;70.90
13604;BME280;24578;48.264;11.436;2022-08-21T06:17:35;96234.72;;;25.38;66.02
13604;BME280;24578;48.264;11.436;2022-08-21T06:20:35;96228.91;;;26.02;63.47
13604;BME280;24578;48.264;11.436;2022-08-21T06:23:35;96228.78;;;26.49;61.63
13604;BME280;24578;48.264;11.436;2022-08-21T06:26:36;96227.38;;;26.78;59.07
13604;BME280;24578;48.264;11.436;2022-08-21T06:29:37;96227.59;;;27.09;57.62
13604;BME280;24578;48.264;11.436;2022-08-21T06:32:37;96228.56;;;27.40;57.05
13604;BME280;24578;48.264;11.436;2022-08-21T06:35:38;96221.84;;;27.81;56.06
13604;BME280;24578;48.264;11.436;2022-08-21T06:38:38;96221.13;;;28.30;54.00
13604;BME280;24578;48.264;11.436;2022-08-21T06:41:38;96213.38;;;28.59;51.94
13604;BME280;24578;48.264;11.436;2022-08-21T06:44:38;96218.59;;;28.96;51.33
13604;BME280;24578;48.264;11.436;2022-08-21T06:47:38;96217.41;;;29.58;49.73
13604;BME280;24578;48.264;11.436;2022-08-21T06:50:39;96205.00;;;29.63;48.04
13604;BME280;24578;48.264;11.436;2022-08-21T06:53:39;96211.69;;;29.90;46.92
13604;BME280;24578;48.264;11.436;2022-08-21T06:56:39;96211.50;;;29.56;46.69
13604;BME280;24578;48.264;11.436;2022-08-21T06:59:40;96205.50;;;30.25;45.84
13604;BME280;24578;48.264;11.436;2022-08-21T07:02:40;96210.81;;;30.83;44.41
13604;BME280;24578;48.264;11.436;2022-08-21T07:05:40;96202.66;;;31.07;42.23
13604;BME280;24578;48.264;11.436;2022-08-21T07:08:40;96205.22;;;31.70;41.58
13604;BME280;24578;48.264;11.436;2022-08-21T07:11:41;96198.50;;;31.84;39.65
13604;BME280;24578;48.264;11.436;2022-08-21T07:14:41;96200.72;;;31.70;40.94
13604;BME280;24578;48.264;11.436;2022-08-21T07:17:42;96199.03;;;32.09;39.73
13604;BME280;24578;48.264;11.436;2022-08-21T07:20:42;96195.00;;;32.28;39.95
13604;BME280;24578;48.264;11.436;2022-08-21T07:23:44;96201.03;;;32.41;37.40
13604;BME280;24578;48.264;11.436;2022-08-21T07:26:45;96199.88;;;32.86;37.20
13604;BME280;24578;48.264;11.436;2022-08-21T07:29:45;96192.88;;;32.08;35.24
13604;BME280;24578;48.264;11.436;2022-08-21T07:32:45;96193.41;;;32.55;36.50
13604;BME280;24578;48.264;11.436;2022-08-21T07:35:50;96181.16;;;32.91;36.50
13604;BME280;24578;48.264;11.436;2022-08-21T07:38:50;96181.84;;;33.09;35.39
13604;BME280;24578;48.264;11.436;2022-08-21T07:41:51;96182.78;;;32.65;34.24
13604;BME280;24578;48.264;11.436;2022-08-21T07:44:51;96188.50;;;33.01;36.31
13604;BME280;24578;48.264;11.436;2022-08-21T07:47:51;96182.38;;;33.92;34.51
13604;BME280;24578;48.264;11.436;2022-08-21T07:50:51;96177.41;;;34.37;33.74
13604;BME280;24578;48.264;11.436;2022-08-21T07:53:52;96182.75;;;34.26;32.58
13604;BME280;24578;48.264;11.436;2022-08-21T07:56:53;96178.03;;;34.75;32.12
13604;BME280;24578;48.264;11.436;2022-08-21T07:59:53;96181.31;;;35.03;32.49
13604;BME280;24578;48.264;11.436;2022-08-21T08:02:54;96171.59;;;35.48;31.79
13604;BME280;24578;48.264;11.436;2022-08-21T08:05:55;96175.38;;;35.16;32.16
13604;BME280;24578;48.264;11.436;2022-08-21T08:08:55;96174.84;;;35.25;32.19
13604;BME280;24578;48.264;11.436;2022-08-21T08:11:56;96174.28;;;35.48;31.91
13604;BME280;24578;48.264;11.436;2022-08-21T08:14:56;96176.84;;;35.85;30.72
13604;BME280;24578;48.264;11.436;2022-08-21T08:17:57;96181.94;;;35.91;29.99
13604;BME280;24578;48.264;11.436;2022-08-21T08:20:57;96171.75;;;36.38;29.92
13604;BME280;24578;48.264;11.436;2022-08-21T08:23:57;96164.03;;;36.26;29.44
13604;BME280;24578;48.264;11.436;2022-08-21T08:26:58;96168.94;;;36.64;30.50
13604;BME280;24578;48.264;11.436;2022-08-21T08:29:58;96170.22;;;36.27;30.89
13604;BME280;24578;48.264;11.436;2022-08-21T08:32:59;96157.72;;;36.86;29.75
13604;BME280;24578;48.264;11.436;2022-08-21T08:36:00;96167.00;;;37.10;29.14
13604;BME280;24578;48.264;11.436;2022-08-21T08:39:00;96169.63;;;36.80;30.19
13604;BME280;24578;48.264;11.436;2022-08-21T08:48:05;96167.38;;;36.58;29.99
13604;BME280;24578;48.264;11.436;2022-08-21T08:51:09;96174.81;;;35.50;31.75
13604;BME280;24578;48.264;11.436;2022-08-21T08:54:13;96167.53;;;34.58;32.86
13604;BME280;24578;48.264;11.436;2022-08-21T08:57:16;96173.16;;;34.51;32.81
13604;BME280;24578;48.264;11.436;2022-08-21T09:00:18;96164.63;;;35.27;32.87
13604;BME280;24578;48.264;11.436;2022-08-21T09:03:19;96166.53;;;36.12;31.39
13604;BME280;24578;48.264;11.436;2022-08-21T09:12:45;96164.31;;;35.39;32.21
13604;BME280;24578;48.264;11.436;2022-08-21T09:25:25;96160.56;;;34.67;33.09
13604;BME280;24578;48.264;11.436;2022-08-21T09:28:26;96160.19;;;35.77;31.91
13604;BME280;24578;48.264;11.436;2022-08-21T09:35:22;96153.69;;;36.84;30.82
13604;BME280;24578;48.264;11.436;2022-08-21T09:38:32;96161.88;;;33.75;35.81
13604;BME280;24578;48.264;11.436;2022-08-21T09:41:34;96166.09;;;33.18;37.17
13604;BME280;24578;48.264;11.436;2022-08-21T09:44:36;96154.09;;;33.68;36.10
13604;BME280;24578;48.264;11.436;2022-08-21T09:47:40;96150.59;;;35.40;33.43
13604;BME280;24578;48.264;11.436;2022-08-21T09:50:40;96145.91;;;35.82;32.20
13604;BME280;24578;48.264;11.436;2022-08-21T09:53:48;96142.81;;;36.20;31.13
13604;BME280;24578;48.264;11.436;2022-08-21T09:56:53;96149.22;;;36.24;30.91
13604;BME280;24578;48.264;11.436;2022-08-21T10:00:24;96142.38;;;35.97;31.05
13604;BME280;24578;48.264;11.436;2022-08-21T10:03:25;96139.16;;;36.40;31.08
13604;BME280;24578;48.264;11.436;2022-08-21T10:06:26;96139.84;;;35.30;32.18
13604;BME280;24578;48.264;11.436;2022-08-21T10:09:27;96136.91;;;35.47;32.31
13604;BME280;24578;48.264;11.436;2022-08-21T10:12:33;96137.03;;;35.81;32.61
13604;BME280;24578;48.264;11.436;2022-08-21T10:18:38;96140.88;;;33.57;34.94
13604;BME280;24578;48.264;11.436;2022-08-21T10:24:58;96130.13;;;34.25;33.51
13604;BME280;24578;48.264;11.436;2022-08-21T10:28:15;96143.91;;;33.76;34.79
13604;BME280;24578;48.264;11.436;2022-08-21T10:34:53;96127.75;;;31.75;38.67
13604;BME280;24578;48.264;11.436;2022-08-21T10:44:09;96131.59;;;32.34;35.69
13604;BME280;24578;48.264;11.436;2022-08-21T10:47:27;96129.41;;;32.86;36.34
13604;BME280;24578;48.264;11.436;2022-08-21T10:53:41;96124.22;;;33.12;35.96
13604;BME280;24578;48.264;11.436;2022-08-21T10:56:42;96117.47;;;32.99;34.11
13604;BME280;24578;48.264;11.436;2022-08-21T10:59:55;96123.28;;;32.63;32.76
13604;BME280;24578;48.264;11.436;2022-08-21T11:02:58;96121.09;;;32.55;34.10
13604;BME280;24578;48.264;11.436;2022-08-21T11:09:08;96114.69;;;32.28;32.97
13604;BME280;24578;48.264;11.436;2022-08-21T11:15:36;96104.75;;;32.56;33.57
13604;BME280;24578;48.264;11.436;2022-08-21T11:18:39;96089.13;;;32.75;32.51
13604;BME280;24578;48.264;11.436;2022-08-21T11:21:45;96083.66;;;32.65;33.12
13604;BME280;24578;48.264;11.436;2022-08-21T11:24:52;96097.59;;;32.62;32.29
13604;BME280;24578;48.264;11.436;2022-08-21T11:34:13;96082.06;;;32.97;32.16
13604;BME280;24578;48.264;11.436;2022-08-21T11:43:57;96080.06;;;33.24;31.22
13604;BME280;24578;48.264;11.436;2022-08-21T11:56:11;96087.38;;;30.81;35.95
13604;BME280;24578;48.264;11.436;2022-08-21T11:59:20;96072.81;;;30.89;34.87
13604;BME280;24578;48.264;11.436;2022-08-21T12:02:23;96071.25;;;31.49;32.81
13604;BME280;24578;48.264;11.436;2022-08-21T12:05:29;96068.94;;;31.58;31.09
13604;BME280;24578;48.264;11.436;2022-08-21T12:11:31;96058.25;;;31.80;32.13
13604;BME280;24578;48.264;11.436;2022-08-21T12:14:36;96058.09;;;32.19;33.07
13604;BME280;24578;48.264;11.436;2022-08-21T12:17:38;96061.19;;;32.06;31.28
13604;BME280;24578;48.264;11.436;2022-08-21T12:20:40;96061.47;;;31.60;32.48
13604;BME280;24578;48.264;11.436;2022-08-21T12:23:46;96061.41;;;31.33;32.45
13604;BME280;24578;48.264;11.436;2022-08-21T12:27:40;96055.38;;;31.42;29.21
13604;BME280;24578;48.264;11.436;2022-08-21T12:30:20;96053.97;;;31.79;30.58
13604;BME280;24578;48.264;11.436;2022-08-21T12:33:22;96048.63;;;32.07;29.09
13604;BME280;24578;48.264;11.436;2022-08-21T12:36:24;96051.41;;;32.49;29.42
13604;BME280;24578;48.264;11.436;2022-08-21T12:39:27;96048.06;;;32.32;28.15
13604;BME280;24578;48.264;11.436;2022-08-21T12:42:39;96047.31;;;32.09;30.22
13604;BME280;24578;48.264;11.436;2022-08-21T12:45:43;96048.63;;;32.07;31.59
13604;BME280;24578;48.264;11.436;2022-08-21T12:48:46;96035.88;;;31.92;30.40
13604;BME280;24578;48.264;11.436;2022-08-21T12:51:57;96035.34;;;31.23;31.04
13604;BME280;24578;48.264;11.436;2022-08-21T12:55:01;96032.28;;;30.41;33.10
13604;BME280;24578;48.264;11.436;2022-08-21T12:58:01;96027.78;;;30.12;33.46
13604;BME280;24578;48.264;11.436;2022-08-21T13:01:05;96025.78;;;30.36;33.38
13604;BME280;24578;48.264;11.436;2022-08-21T13:04:07;96026.38;;;30.73;31.88
13604;BME280;24578;48.264;11.436;2022-08-21T13:07:09;96017.94;;;30.30;32.88
13604;BME280;24578;48.264;11.436;2022-08-21T13:10:25;96022.00;;;30.49;32.66
13604;BME280;24578;48.264;11.436;2022-08-21T13:13:26;96018.00;;;30.86;31.76
13604;BME280;24578;48.264;11.436;2022-08-21T13:16:27;96020.69;;;30.86;31.55
13604;BME280;24578;48.264;11.436;2022-08-21T13:19:28;96015.47;;;30.57;31.56
13604;BME280;24578;48.264;11.436;2022-08-21T13:22:29;96022.91;;;30.55;32.56
13604;BME280;24578;48.264;11.436;2022-08-21T13:25:33;96019.72;;;30.75;33.75
13604;BME280;24578;48.264;11.436;2022-08-21T13:28:34;96020.16;;;31.06;32.26
13604;BME280;24578;48.264;11.436;2022-08-21T13:31:37;96010.84;;;31.31;31.37
13604;BME280;24578;48.264;11.436;2022-08-21T13:34:39;96015.28;;;31.20;30.77
13604;BME280;24578;48.264;11.436;2022-08-21T13:37:40;96012.09;;;31.23;30.23
13604;BME280;24578;48.264;11.436;2022-08-21T13:41:16;96001.59;;;31.39;31.22
13604;BME280;24578;48.264;11.436;2022-08-21T13:47:15;95999.97;;;31.60;29.81
13604;BME280;24578;48.264;11.436;2022-08-21T13:50:16;96001.53;;;31.78;29.55
13604;BME280;24578;48.264;11.436;2022-08-21T13:54:12;95991.13;;;31.59;29.08
13604;BME280;24578;48.264;11.436;2022-08-21T13:56:43;95997.88;;;31.89;29.03
13604;BME280;24578;48.264;11.436;2022-08-21T14:03:42;95994.22;;;31.07;29.91
13604;BME280;24578;48.264;11.436;2022-08-21T14:10:16;95998.22;;;31.98;30.50
13604;BME280;24578;48.264;11.436;2022-08-21T14:16:46;95999.78;;;31.94;29.71
13604;BME280;24578;48.264;11.436;2022-08-21T14:19:47;95995.72;;;31.64;29.30
13604;BME280;24578;48.264;11.436;2022-08-21T14:22:48;95992.41;;;31.29;30.83
13604;BME280;24578;48.264;11.436;2022-08-21T14:25:48;95993.84;;;30.59;31.15
13604;BME280;24578;48.264;11.436;2022-08-21T14:28:48;95997.06;;;30.27;32.66
13604;BME280;24578;48.264;11.436;2022-08-21T14:31:50;95992.31;;;30.29;31.94
13604;BME280;24578;48.264;11.436;2022-08-21T14:34:51;95993.13;;;30.46;30.31
13604;BME280;24578;48.264;11.436;2022-08-21T14:37:52;95989.22;;;30.54;29.77
13604;BME280;24578;48.264;11.436;2022-08-21T14:41:00;95990.44;;;30.46;30.31
13604;BME280;24578;48.264;11.436;2022-08-21T14:44:04;95982.84;;;30.04;30.19
13604;BME280;24578;48.264;11.436;2022-08-21T14:47:05;95988.59;;;29.84;30.27
13604;BME280;24578;48.264;11.436;2022-08-21T14:50:05;95985.78;;;29.61;30.90
13604;BME280;24578;48.264;11.436;2022-08-21T14:53:06;95990.63;;;29.24;31.99
13604;BME280;24578;48.264;11.436;2022-08-21T14:56:06;95985.72;;;29.04;31.77
13604;BME280;24578;48.264;11.436;2022-08-21T14:59:07;95988.25;;;28.63;32.96
13604;BME280;24578;48.264;11.436;2022-08-21T15:02:08;95986.19;;;28.29;33.20
13604;BME280;24578;48.264;11.436;2022-08-21T15:05:08;95985.84;;;27.95;33.66
13604;BME280;24578;48.264;11.436;2022-08-21T15:08:09;95988.41;;;27.59;33.89
13604;BME280;24578;48.264;11.436;2022-08-21T15:11:11;95987.81;;;27.20;33.92
13604;BME280;24578;48.264;11.436;2022-08-21T15:14:15;95990.56;;;26.95;34.29
13604;BME280;24578;48.264;11.436;2022-08-21T15:17:17;95987.81;;;26.39;34.49
13604;BME280;24578;48.264;11.436;2022-08-21T15:20:17;95987.63;;;26.34;36.39
13604;BME280;24578;48.264;11.436;2022-08-21T15:23:18;95987.88;;;26.32;36.61
13604;BME280;24578;48.264;11.436;2022-08-21T15:26:18;95980.56;;;26.27;36.57
13604;BME280;24578;48.264;11.436;2022-08-21T15:29:19;95984.06;;;26.21;36.75
13604;BME280;24578;48.264;11.436;2022-08-21T15:32:21;95984.16;;;26.08;36.77
13604;BME280;24578;48.264;11.436;2022-08-21T15:35:22;95989.97;;;25.91;37.57
13604;BME280;24578;48.264;11.436;2022-08-21T15:38:23;95987.97;;;25.87;37.19
13604;BME280;24578;48.264;11.436;2022-08-21T15:41:23;95991.25;;;25.82;37.56
13604;BME280;24578;48.264;11.436;2022-08-21T15:44:23;95982.75;;;25.73;36.85
13604;BME280;24578;48.264;11.436;2022-08-21T15:47:29;95978.78;;;25.50;38.05
13604;BME280;24578;48.264;11.436;2022-08-21T15:50:30;95977.34;;;25.54;38.60
13604;BME280;24578;48.264;11.436;2022-08-21T15:53:31;95979.00;;;25.49;37.74
13604;BME280;24578;48.264;11.436;2022-08-21T15:56:36;95976.56;;;25.41;39.13
13604;BME280;24578;48.264;11.436;2022-08-21T15:59:39;95979.06;;;25.29;39.35
13604;BME280;24578;48.264;11.436;2022-08-21T16:02:42;95982.13;;;25.26;39.84
13604;BME280;24578;48.264;11.436;2022-08-21T16:05:43;95975.63;;;25.21;40.40
13604;BME280;24578;48.264;11.436;2022-08-21T16:08:44;95976.06;;;25.12;40.21
13604;BME280;24578;48.264;11.436;2022-08-21T16:11:44;95975.69;;;25.08;40.51
13604;BME280;24578;48.264;11.436;2022-08-21T16:14:44;95974.72;;;24.89;40.61
13604;BME280;24578;48.264;11.436;2022-08-21T16:17:45;95974.13;;;24.87;40.08
13604;BME280;24578;48.264;11.436;2022-08-21T16:20:49;95969.44;;;24.89;40.16
13604;BME280;24578;48.264;11.436;2022-08-21T16:23:50;95970.47;;;24.81;40.07
13604;BME280;24578;48.264;11.436;2022-08-21T16:26:50;95966.63;;;24.77;40.50
13604;BME280;24578;48.264;11.436;2022-08-21T16:29:50;95972.31;;;24.67;40.70
13604;BME280;24578;48.264;11.436;2022-08-21T16:32:51;95959.88;;;24.61;40.20
13604;BME280;24578;48.264;11.436;2022-08-21T16:35:51;95959.50;;;24.57;40.60
13604;BME280;24578;48.264;11.436;2022-08-21T16:38:52;95952.19;;;24.53;41.36
13604;BME280;24578;48.264;11.436;2022-08-21T16:41:53;95955.03;;;24.38;39.96
13604;BME280;24578;48.264;11.436;2022-08-21T16:44:53;95953.22;;;24.31;40.76
13604;BME280;24578;48.264;11.436;2022-08-21T16:47:54;95954.03;;;24.32;41.31
13604;BME280;24578;48.264;11.436;2022-08-21T16:50:55;95955.06;;;24.24;40.90
13604;BME280;24578;48.264;11.436;2022-08-21T16:53:55;95951.41;;;24.18;41.52
13604;BME280;24578;48.264;11.436;2022-08-21T16:56:55;95951.19;;;24.07;41.82
13604;BME280;24578;48.264;11.436;2022-08-21T16:59:55;95958.72;;;23.96;41.82
13604;BME280;24578;48.264;11.436;2022-08-21T17:02:56;95954.22;;;23.90;42.40
13604;BME280;24578;48.264;11.436;2022-08-21T17:05:56;95953.38;;;23.83;42.81
13604;BME280;24578;48.264;11.436;2022-08-21T17:08:57;95948.72;;;23.71;42.83
13604;BME280;24578;48.264;11.436;2022-08-21T17:11:57;95956.00;;;23.63;43.07
13604;BME280;24578;48.264;11.436;2022-08-21T17:15:00;95951.91;;;23.53;43.67